sensor_id;sensor_type;location;lat;lon;timestamp;P1;durP1;ratioP1;P2;durP2;ratioP2
55589;SDS011;41452;42.780;23.116;2023-09-07T00:01:42;7.28;;;4.28;;
55589;SDS011;41452;42.780;23.116;2023-09-07T00:04:07;8.00;;;3.67;;
55589;SDS011;41452;42.780;23.116;2023-09-07T00:06:32;7.45;;;3.83;;
55589;SDS011;41452;42.780;23.116;2023-09-07T00:08:59;9.73;;;3.78;;
55589;SDS011;41452;42.780;23.116;2023-09-07T00:11:25;7.10;;;3.85;;
55589;SDS011;41452;42.780;23.116;2023-09-07T00:13:50;6.15;;;3.47;;
55589;SDS011;41452;42.780;23.116;2023-09-07T00:16:15;5.47;;;3.67;;
55589;SDS011;41452;42.780;23.116;2023-09-07T00:18:41;10.75;;;3.88;;
55589;SDS011;41452;42.780;23.116;2023-09-07T00:21:06;6.78;;;3.58;;
55589;SDS011;41452;42.780;23.116;2023-09-07T00:23:32;6.13;;;3.72;;
55589;SDS011;41452;42.780;23.116;2023-09-07T00:25:57;6.47;;;3.47;;
55589;SDS011;41452;42.780;23.116;2023-09-07T00:28:23;6.15;;;3.47;;
55589;SDS011;41452;42.780;23.116;2023-09-07T00:30:48;8.52;;;3.80;;
55589;SDS011;41452;42.780;23.116;2023-09-07T00:33:13;6.78;;;3.35;;
55589;SDS011;41452;42.780;23.116;2023-09-07T00:35:39;7.10;;;4.00;;
55589;SDS011;41452;42.780;23.116;2023-09-07T00:38:04;8.70;;;4.85;;
55589;SDS011;41452;42.780;23.116;2023-09-07T00:40:30;7.25;;;4.07;;
55589;SDS011;41452;42.780;23.116;2023-09-07T00:42:55;12.98;;;5.10;;
55589;SDS011;41452;42.780;23.116;2023-09-07T00:45:21;7.28;;;4.60;;
55589;SDS011;41452;42.780;23.116;2023-09-07T00:47:46;9.82;;;4.82;;
55589;SDS011;41452;42.780;23.116;2023-09-07T00:50:12;7.75;;;4.65;;
55589;SDS011;41452;42.780;23.116;2023-09-07T00:52:44;7.18;;;5.07;;
55589;SDS011;41452;42.780;23.116;2023-09-07T00:55:12;12.45;;;6.20;;
55589;SDS011;41452;42.780;23.116;2023-09-07T00:57:38;8.80;;;5.82;;
55589;SDS011;41452;42.780;23.116;2023-09-07T01:00:04;9.52;;;5.57;;
55589;SDS011;41452;42.780;23.116;2023-09-07T01:02:31;11.15;;;5.30;;
55589;SDS011;41452;42.780;23.116;2023-09-07T01:04:57;7.68;;;5.43;;
55589;SDS011;41452;42.780;23.116;2023-09-07T01:07:28;8.38;;;6.10;;
55589;SDS011;41452;42.780;23.116;2023-09-07T01:10:02;9.35;;;5.68;;
55589;SDS011;41452;42.780;23.116;2023-09-07T01:12:28;9.70;;;6.28;;
55589;SDS011;41452;42.780;23.116;2023-09-07T01:14:54;9.23;;;6.60;;
55589;SDS011;41452;42.780;23.116;2023-09-07T06:25:27;12.55;;;6.80;;
55589;SDS011;41452;42.780;23.116;2023-09-07T06:27:53;9.95;;;5.65;;
55589;SDS011;41452;42.780;23.116;2023-09-07T06:30:18;12.85;;;5.68;;
55589;SDS011;41452;42.780;23.116;2023-09-07T06:32:44;13.07;;;6.13;;
55589;SDS011;41452;42.780;23.116;2023-09-07T06:35:10;13.07;;;4.90;;
55589;SDS011;41452;42.780;23.116;2023-09-07T06:37:35;8.75;;;5.05;;
55589;SDS011;41452;42.780;23.116;2023-09-07T06:40:01;6.90;;;4.80;;
55589;SDS011;41452;42.780;23.116;2023-09-07T06:42:28;10.38;;;4.95;;
55589;SDS011;41452;42.780;23.116;2023-09-07T06:44:56;9.85;;;4.53;;
55589;SDS011;41452;42.780;23.116;2023-09-07T06:47:21;9.73;;;4.65;;
55589;SDS011;41452;42.780;23.116;2023-09-07T06:49:46;11.23;;;5.55;;
55589;SDS011;41452;42.780;23.116;2023-09-07T06:52:12;13.00;;;5.68;;
55589;SDS011;41452;42.780;23.116;2023-09-07T06:54:38;9.35;;;6.68;;
55589;SDS011;41452;42.780;23.116;2023-09-07T06:57:06;10.60;;;5.97;;
55589;SDS011;41452;42.780;23.116;2023-09-07T06:59:33;13.45;;;6.97;;
55589;SDS011;41452;42.780;23.116;2023-09-07T07:01:58;11.10;;;6.65;;
55589;SDS011;41452;42.780;23.116;2023-09-07T07:04:25;12.57;;;5.90;;
55589;SDS011;41452;42.780;23.116;2023-09-07T07:06:51;12.77;;;6.35;;
55589;SDS011;41452;42.780;23.116;2023-09-07T07:09:16;9.90;;;6.18;;
55589;SDS011;41452;42.780;23.116;2023-09-07T07:11:41;11.82;;;5.93;;
55589;SDS011;41452;42.780;23.116;2023-09-07T07:14:08;10.98;;;6.47;;
55589;SDS011;41452;42.780;23.116;2023-09-07T07:16:34;8.43;;;6.32;;
55589;SDS011;41452;42.780;23.116;2023-09-07T07:18:59;11.43;;;5.40;;
55589;SDS011;41452;42.780;23.116;2023-09-07T07:21:25;11.90;;;6.70;;
55589;SDS011;41452;42.780;23.116;2023-09-07T07:23:50;8.38;;;5.40;;
55589;SDS011;41452;42.780;23.116;2023-09-07T07:26:16;15.55;;;6.38;;
55589;SDS011;41452;42.780;23.116;2023-09-07T07:28:42;8.05;;;5.18;;
55589;SDS011;41452;42.780;23.116;2023-09-07T07:31:08;8.05;;;4.72;;
55589;SDS011;41452;42.780;23.116;2023-09-07T07:33:34;7.45;;;4.85;;
55589;SDS011;41452;42.780;23.116;2023-09-07T07:36:00;9.65;;;4.40;;
55589;SDS011;41452;42.780;23.116;2023-09-07T07:38:25;8.77;;;5.22;;
55589;SDS011;41452;42.780;23.116;2023-09-07T07:40:51;7.85;;;4.80;;
55589;SDS011;41452;42.780;23.116;2023-09-07T07:43:17;9.55;;;4.68;;
55589;SDS011;41452;42.780;23.116;2023-09-07T07:45:43;9.05;;;4.68;;
55589;SDS011;41452;42.780;23.116;2023-09-07T07:48:08;7.70;;;4.05;;
55589;SDS011;41452;42.780;23.116;2023-09-07T07:50:37;6.10;;;4.38;;
55589;SDS011;41452;42.780;23.116;2023-09-07T07:53:06;8.65;;;4.28;;
55589;SDS011;41452;42.780;23.116;2023-09-07T07:55:38;8.18;;;4.32;;
55589;SDS011;41452;42.780;23.116;2023-09-07T07:58:07;8.23;;;4.43;;
55589;SDS011;41452;42.780;23.116;2023-09-07T08:00:34;6.43;;;3.90;;
55589;SDS011;41452;42.780;23.116;2023-09-07T08:03:02;7.25;;;4.13;;
55589;SDS011;41452;42.780;23.116;2023-09-07T08:05:31;7.93;;;4.45;;
55589;SDS011;41452;42.780;23.116;2023-09-07T08:07:57;9.30;;;4.25;;
55589;SDS011;41452;42.780;23.116;2023-09-07T08:10:22;7.32;;;3.88;;
55589;SDS011;41452;42.780;23.116;2023-09-07T08:12:51;9.55;;;4.13;;
55589;SDS011;41452;42.780;23.116;2023-09-07T08:15:18;7.80;;;4.28;;
55589;SDS011;41452;42.780;23.116;2023-09-07T08:17:46;8.73;;;4.72;;
55589;SDS011;41452;42.780;23.116;2023-09-07T08:20:12;10.35;;;4.63;;
55589;SDS011;41452;42.780;23.116;2023-09-07T08:22:38;8.68;;;5.30;;
55589;SDS011;41452;42.780;23.116;2023-09-07T14:35:15;7.68;;;3.78;;
55589;SDS011;41452;42.780;23.116;2023-09-07T14:37:41;8.27;;;3.88;;
55589;SDS011;41452;42.780;23.116;2023-09-07T14:40:06;10.77;;;4.00;;
55589;SDS011;41452;42.780;23.116;2023-09-07T14:42:33;13.18;;;4.35;;
55589;SDS011;41452;42.780;23.116;2023-09-07T14:44:58;9.55;;;4.47;;
55589;SDS011;41452;42.780;23.116;2023-09-07T14:47:26;14.63;;;4.72;;
55589;SDS011;41452;42.780;23.116;2023-09-07T14:49:55;6.15;;;4.22;;
55589;SDS011;41452;42.780;23.116;2023-09-07T14:52:20;11.32;;;3.67;;
55589;SDS011;41452;42.780;23.116;2023-09-07T14:54:49;13.35;;;3.78;;
55589;SDS011;41452;42.780;23.116;2023-09-07T14:57:15;7.40;;;4.10;;
55589;SDS011;41452;42.780;23.116;2023-09-07T14:59:40;6.90;;;3.28;;
55589;SDS011;41452;42.780;23.116;2023-09-07T15:02:05;9.20;;;4.03;;
55589;SDS011;41452;42.780;23.116;2023-09-07T15:04:31;6.28;;;3.78;;
55589;SDS011;41452;42.780;23.116;2023-09-07T15:06:58;8.80;;;3.85;;
55589;SDS011;41452;42.780;23.116;2023-09-07T15:09:23;4.97;;;3.33;;
55589;SDS011;41452;42.780;23.116;2023-09-07T15:11:49;7.97;;;3.63;;
55589;SDS011;41452;42.780;23.116;2023-09-07T15:14:15;5.88;;;3.92;;
55589;SDS011;41452;42.780;23.116;2023-09-07T15:16:40;5.15;;;3.65;;
55589;SDS011;41452;42.780;23.116;2023-09-07T15:19:05;5.47;;;3.92;;
55589;SDS011;41452;42.780;23.116;2023-09-07T15:21:31;7.65;;;3.88;;
55589;SDS011;41452;42.780;23.116;2023-09-07T15:23:56;8.05;;;4.07;;
55589;SDS011;41452;42.780;23.116;2023-09-07T15:26:22;8.85;;;3.53;;
55589;SDS011;41452;42.780;23.116;2023-09-07T15:28:48;6.22;;;3.80;;
55589;SDS011;41452;42.780;23.116;2023-09-07T15:31:14;6.85;;;3.45;;
55589;SDS011;41452;42.780;23.116;2023-09-07T15:33:39;7.07;;;4.10;;
55589;SDS011;41452;42.780;23.116;2023-09-07T15:36:05;9.77;;;3.67;;
55589;SDS011;41452;42.780;23.116;2023-09-07T15:38:30;8.20;;;3.83;;
55589;SDS011;41452;42.780;23.116;2023-09-07T15:40:55;8.35;;;3.78;;
55589;SDS011;41452;42.780;23.116;2023-09-07T15:43:22;5.38;;;3.65;;
55589;SDS011;41452;42.780;23.116;2023-09-07T15:45:47;8.80;;;3.47;;
55589;SDS011;41452;42.780;23.116;2023-09-07T15:48:13;5.55;;;3.55;;
55589;SDS011;41452;42.780;23.116;2023-09-07T15:50:38;6.18;;;3.45;;
55589;SDS011;41452;42.780;23.116;2023-09-07T15:53:04;7.07;;;4.47;;
55589;SDS011;41452;42.780;23.116;2023-09-07T15:55:29;7.15;;;3.58;;
55589;SDS011;41452;42.780;23.116;2023-09-07T15:57:55;6.72;;;3.88;;
55589;SDS011;41452;42.780;23.116;2023-09-07T16:00:21;7.15;;;3.75;;
55589;SDS011;41452;42.780;23.116;2023-09-07T16:02:46;8.75;;;3.30;;
55589;SDS011;41452;42.780;23.116;2023-09-07T16:05:12;10.85;;;4.28;;
55589;SDS011;41452;42.780;23.116;2023-09-07T16:07:37;6.57;;;4.03;;
55589;SDS011;41452;42.780;23.116;2023-09-07T16:10:03;5.78;;;3.60;;
55589;SDS011;41452;42.780;23.116;2023-09-07T16:12:29;10.88;;;3.67;;
55589;SDS011;41452;42.780;23.116;2023-09-07T16:14:54;7.47;;;3.95;;
55589;SDS011;41452;42.780;23.116;2023-09-07T16:17:19;6.65;;;3.70;;
55589;SDS011;41452;42.780;23.116;2023-09-07T16:19:45;7.95;;;5.60;;
55589;SDS011;41452;42.780;23.116;2023-09-07T16:22:10;7.50;;;3.85;;
55589;SDS011;41452;42.780;23.116;2023-09-07T16:24:36;5.85;;;3.78;;
55589;SDS011;41452;42.780;23.116;2023-09-07T16:27:02;6.60;;;4.10;;
55589;SDS011;41452;42.780;23.116;2023-09-07T16:29:28;9.13;;;3.95;;
55589;SDS011;41452;42.780;23.116;2023-09-07T16:31:53;6.97;;;3.92;;
55589;SDS011;41452;42.780;23.116;2023-09-07T16:34:19;7.03;;;3.85;;
